createdAt,value
2023-05-04T00:02:02.372Z,101616.28
2023-05-04T00:04:28.757Z,101611.94
2023-05-04T00:06:55.158Z,101616.50
2023-05-04T00:09:21.523Z,101616.06
2023-05-04T00:11:47.951Z,101618.06
2023-05-04T00:14:14.419Z,101608.69
2023-05-04T00:16:40.988Z,101608.25
2023-05-04T00:19:07.509Z,101612.34
2023-05-04T00:21:33.867Z,101609.41
2023-05-04T00:24:01.972Z,101611.09
2023-05-04T00:26:28.339Z,101605.13
2023-05-04T00:28:54.710Z,101606.75
2023-05-04T00:31:21.156Z,101604.47
2023-05-04T00:33:47.591Z,101602.75
2023-05-04T00:36:14.010Z,101599.22
2023-05-04T00:38:40.417Z,101594.22
2023-05-04T00:41:07.268Z,101591.44
2023-05-04T00:43:33.686Z,101597.88
2023-05-04T00:46:00.029Z,101593.91
2023-05-04T00:48:26.387Z,101595.09
2023-05-04T00:50:52.735Z,101589.25
2023-05-04T00:53:19.073Z,101579.03
2023-05-04T00:55:45.480Z,101578.59
2023-05-04T00:58:12.368Z,101572.06
2023-05-04T01:00:42.771Z,101571.59
2023-05-04T01:03:12.657Z,101568.97
2023-05-04T01:05:39.166Z,101566.75
2023-05-04T01:08:05.564Z,101576.19
2023-05-04T01:10:32.391Z,101568.53
2023-05-04T01:12:58.762Z,101566.63
2023-05-04T01:15:25.154Z,101564.69
2023-05-04T01:17:51.539Z,101562.47
2023-05-04T01:20:17.974Z,101562.28
2023-05-04T01:22:44.368Z,101554.47
2023-05-04T01:25:10.793Z,101553.94
2023-05-04T01:27:37.203Z,101552.00
2023-05-04T01:30:03.801Z,101551.88
2023-05-04T01:32:30.438Z,101554.25
2023-05-04T01:34:57.782Z,101553.88
2023-05-04T01:37:24.496Z,101551.44
2023-05-04T01:39:50.857Z,101546.69
2023-05-04T01:42:17.326Z,101552.97
2023-05-04T01:44:43.678Z,101552.09
2023-05-04T01:47:10.036Z,101554.97
2023-05-04T01:49:36.574Z,101558.00
2023-05-04T01:52:02.929Z,101565.44
2023-05-04T01:54:29.319Z,101564.25
2023-05-04T01:56:57.072Z,101560.38
2023-05-04T01:59:23.433Z,101559.38
2023-05-04T02:01:49.926Z,101552.34
2023-05-04T02:04:16.315Z,101555.44
2023-05-04T02:06:42.661Z,101553.81
2023-05-04T02:09:09.065Z,101550.59
2023-05-04T02:11:35.494Z,101546.94
2023-05-04T02:14:01.961Z,101557.16
2023-05-04T02:16:28.428Z,101546.38
2023-05-04T02:18:54.981Z,101545.81
2023-05-04T02:21:21.520Z,101544.81
2023-05-04T02:23:47.885Z,101547.13
2023-05-04T02:26:14.358Z,101543.84
2023-05-04T02:28:40.730Z,101547.06
2023-05-04T02:31:08.750Z,101554.66
2023-05-04T02:33:35.201Z,101550.22
2023-05-04T02:36:01.692Z,101548.19
2023-05-04T02:38:28.113Z,101551.69
2023-05-04T02:40:54.506Z,101541.16
2023-05-04T02:43:20.846Z,101544.47
2023-05-04T02:45:47.340Z,101539.34
2023-05-04T02:48:13.784Z,101534.81
2023-05-04T02:50:40.318Z,101535.38
2023-05-04T02:53:06.678Z,101523.38
2023-05-04T02:55:33.109Z,101522.50
2023-05-04T02:57:59.571Z,101522.31
2023-05-04T03:00:25.976Z,101519.72
2023-05-04T03:02:52.391Z,101521.31
2023-05-04T03:05:18.887Z,101526.56
2023-05-04T03:07:45.301Z,101525.03
2023-05-04T03:10:11.963Z,101525.47
2023-05-04T03:12:38.361Z,101525.94
2023-05-04T03:15:04.778Z,101526.38
2023-05-04T03:17:31.457Z,101529.06
2023-05-04T03:19:57.958Z,101528.66
2023-05-04T03:22:25.599Z,101528.81
2023-05-04T03:24:52.344Z,101522.03
2023-05-04T03:27:18.838Z,101523.38
2023-05-04T03:29:45.827Z,101516.16
2023-05-04T03:32:13.313Z,101521.53
2023-05-04T03:34:41.336Z,101520.09
2023-05-04T03:37:08.592Z,101511.75
2023-05-04T03:39:34.999Z,101509.78
2023-05-04T03:42:01.438Z,101520.66
2023-05-04T03:44:27.966Z,101515.91
2023-05-04T03:46:54.394Z,101506.47
2023-05-04T03:49:21.446Z,101514.69
2023-05-04T03:51:47.934Z,101499.97
2023-05-04T03:54:14.306Z,101507.31
2023-05-04T03:56:40.730Z,101515.16
2023-05-04T03:59:08.005Z,101523.91
2023-05-04T04:01:34.440Z,101514.44
2023-05-04T04:04:02.125Z,101518.09
2023-05-04T04:06:28.562Z,101518.28
2023-05-04T04:08:54.987Z,101516.41
2023-05-04T04:11:21.483Z,101507.84
2023-05-04T04:13:48.018Z,101509.47
2023-05-04T04:16:14.504Z,101513.47
2023-05-04T04:18:40.963Z,101504.22
2023-05-04T04:21:07.291Z,101506.34
2023-05-04T04:23:33.708Z,101507.50
2023-05-04T04:26:01.446Z,101505.19
2023-05-04T04:28:27.882Z,101509.50
2023-05-04T04:30:54.250Z,101503.94
2023-05-04T04:33:21.180Z,101507.63
2023-05-04T04:35:48.225Z,101504.25
2023-05-04T04:38:14.626Z,101513.91
2023-05-04T04:40:41.237Z,101506.38
2023-05-04T04:43:07.800Z,101501.00
2023-05-04T04:45:34.213Z,101511.13
2023-05-04T04:48:01.071Z,101505.91
2023-05-04T04:50:27.561Z,101499.38
2023-05-04T04:52:54.032Z,101505.66
2023-05-04T04:55:20.565Z,101502.72
2023-05-04T04:57:47.050Z,101501.91
2023-05-04T05:00:14.531Z,101499.97
2023-05-04T05:02:40.954Z,101501.34
2023-05-04T05:05:07.636Z,101501.75
2023-05-04T05:07:34.189Z,101499.03
2023-05-04T05:10:00.696Z,101499.56
2023-05-04T05:12:27.076Z,101489.75
2023-05-04T05:14:53.511Z,101492.69
2023-05-04T05:17:20.087Z,101492.41
2023-05-04T05:19:46.901Z,101492.97
2023-05-04T05:22:13.544Z,101487.34
2023-05-04T05:24:39.923Z,101489.25
2023-05-04T05:27:06.239Z,101480.41
2023-05-04T05:29:32.613Z,101485.97
2023-05-04T05:31:58.978Z,101490.34
2023-05-04T05:34:25.299Z,101477.34
2023-05-04T05:36:51.649Z,101473.06
2023-05-04T05:39:18.101Z,101472.34
2023-05-04T05:41:44.637Z,101475.97
2023-05-04T05:44:12.948Z,101475.41
2023-05-04T05:46:39.809Z,101471.41
2023-05-04T05:49:07.382Z,101479.41
2023-05-04T05:51:33.842Z,101472.97
2023-05-04T05:54:00.390Z,101472.47
2023-05-04T05:56:26.787Z,101473.72
2023-05-04T05:58:53.174Z,101473.47
2023-05-04T06:01:20.101Z,101474.47
2023-05-04T06:03:46.802Z,101477.84
2023-05-04T06:06:13.453Z,101471.41
2023-05-04T06:08:39.787Z,101470.81
2023-05-04T06:11:06.245Z,101471.47
2023-05-04T06:13:32.667Z,101468.53
2023-05-04T06:15:59.058Z,101471.88
2023-05-04T06:18:25.446Z,101472.59
2023-05-04T06:20:52.628Z,101467.78
2023-05-04T06:23:19.156Z,101465.84
2023-05-04T06:25:45.551Z,101468.50
2023-05-04T06:28:11.945Z,101467.53
2023-05-04T06:30:38.347Z,101465.81
2023-05-04T06:33:04.880Z,101476.59
2023-05-04T06:35:31.544Z,101461.47
2023-05-04T06:37:58.426Z,101464.97
2023-05-04T06:40:25.048Z,101462.06
2023-05-04T06:42:51.821Z,101462.25
2023-05-04T06:45:18.328Z,101454.66
2023-05-04T06:47:44.728Z,101453.81
2023-05-04T06:50:11.864Z,101457.13
2023-05-04T06:52:38.345Z,101456.94
2023-05-04T06:55:04.703Z,101457.84
2023-05-04T06:57:31.225Z,101454.94
2023-05-04T06:59:57.627Z,101453.59
2023-05-04T07:02:24.003Z,101451.16
2023-05-04T07:04:50.615Z,101452.69
2023-05-04T07:07:16.940Z,101447.66
2023-05-04T07:09:43.742Z,101441.47
2023-05-04T07:12:10.122Z,101439.84
2023-05-04T07:14:36.465Z,101440.88
2023-05-04T07:17:02.890Z,101431.16
2023-05-04T07:19:29.295Z,101429.31
2023-05-04T07:21:56.014Z,101431.97
2023-05-04T07:24:22.367Z,101429.34
2023-05-04T07:26:48.721Z,101420.63
2023-05-04T07:29:15.131Z,101419.78
2023-05-04T07:31:41.773Z,101424.22
2023-05-04T07:34:08.234Z,101416.22
2023-05-04T07:36:34.688Z,101423.34
2023-05-04T07:39:01.146Z,101415.31
2023-05-04T07:41:27.471Z,101426.78
2023-05-04T07:43:53.859Z,101423.34
2023-05-04T07:46:20.453Z,101423.34
2023-05-04T07:48:47.024Z,101416.22
2023-05-04T07:51:14.105Z,101412.66
2023-05-04T07:53:40.483Z,101410.00
2023-05-04T07:56:07.488Z,101411.75
2023-05-04T07:58:33.812Z,101406.38
2023-05-04T08:01:00.243Z,101406.31
2023-05-04T08:03:26.629Z,101405.41
2023-05-04T08:05:53.052Z,101401.84
2023-05-04T08:08:19.547Z,101400.09
2023-05-04T08:10:46.186Z,101396.28
2023-05-04T08:13:12.734Z,101393.81
2023-05-04T08:15:39.305Z,101388.41
2023-05-04T08:18:06.324Z,101390.03
2023-05-04T08:20:32.715Z,101382.88
2023-05-04T08:22:59.262Z,101373.91
2023-05-04T08:25:26.925Z,101373.06
2023-05-04T08:27:53.314Z,101372.06
2023-05-04T08:30:19.696Z,101372.06
2023-05-04T08:32:46.181Z,101371.00
2023-05-04T08:35:12.617Z,101366.75
2023-05-04T08:37:39.002Z,101362.91
2023-05-04T08:40:05.796Z,101368.38
2023-05-04T08:42:32.288Z,101364.78
2023-05-04T08:44:58.806Z,101363.72
2023-05-04T08:47:25.465Z,101368.44
2023-05-04T08:49:52.132Z,101364.50
2023-05-04T08:52:18.732Z,101358.19
2023-05-04T08:54:45.165Z,101367.88
2023-05-04T08:57:11.846Z,101361.34
2023-05-04T08:59:38.292Z,101350.72
2023-05-04T09:02:04.945Z,101357.94
2023-05-04T09:04:31.590Z,101351.63
2023-05-04T09:06:58.773Z,101357.06
2023-05-04T09:09:25.263Z,101356.22
2023-05-04T09:11:51.648Z,101356.72
2023-05-04T09:14:18.045Z,101354.44
2023-05-04T09:16:44.568Z,101354.09
2023-05-04T09:19:10.971Z,101353.03
2023-05-04T09:21:39.057Z,101344.78
2023-05-04T09:24:05.431Z,101333.03
2023-05-04T09:26:31.862Z,101334.91
2023-05-04T09:28:58.285Z,101333.84
2023-05-04T09:31:24.999Z,101334.06
2023-05-04T09:33:53.415Z,101323.56
2023-05-04T09:36:21.776Z,101322.97
2023-05-04T09:38:48.842Z,101327.63
2023-05-04T09:41:15.373Z,101320.50
2023-05-04T09:43:42.032Z,101314.31
2023-05-04T09:46:09.032Z,101312.69
2023-05-04T09:48:36.280Z,101304.25
2023-05-04T09:51:03.372Z,101314.59
2023-05-04T09:53:29.921Z,101315.81
2023-05-04T09:55:56.606Z,101300.84
2023-05-04T09:58:23.027Z,101304.75
2023-05-04T10:00:49.414Z,101296.53
2023-05-04T10:03:15.874Z,101295.75
2023-05-04T10:05:42.340Z,101289.94
2023-05-04T10:08:08.744Z,101293.03
2023-05-04T10:10:35.823Z,101284.28
2023-05-04T10:13:02.340Z,101273.75
2023-05-04T10:15:28.954Z,101277.16
2023-05-04T10:17:55.462Z,101278.13
2023-05-04T10:20:24.621Z,101278.88
2023-05-04T10:22:50.963Z,101277.28
2023-05-04T10:25:19.642Z,101265.09
2023-05-04T10:27:46.117Z,101275.78
2023-05-04T10:30:13.152Z,101270.13
2023-05-04T10:32:40.106Z,101262.41
2023-05-04T10:35:06.807Z,101267.81
2023-05-04T10:37:33.448Z,101261.50
2023-05-04T10:39:59.866Z,101264.22
2023-05-04T10:42:26.277Z,101248.22
2023-05-04T10:44:55.849Z,101243.53
2023-05-04T10:47:22.636Z,101240.28
2023-05-04T10:49:49.020Z,101229.59
2023-05-04T10:52:18.953Z,101230.53
2023-05-04T10:54:45.490Z,101221.13
2023-05-04T10:57:12.545Z,101217.72
2023-05-04T10:59:38.991Z,101210.44
2023-05-04T11:02:05.633Z,101207.44
2023-05-04T11:04:32.126Z,101201.97
2023-05-04T11:06:58.540Z,101201.59
2023-05-04T11:09:26.565Z,101200.44
2023-05-04T11:11:52.937Z,101196.41
2023-05-04T11:14:19.315Z,101187.66
2023-05-04T11:16:45.815Z,101186.84
2023-05-04T11:19:12.589Z,101181.84
2023-05-04T11:21:39.008Z,101183.59
2023-05-04T11:24:05.381Z,101182.41
2023-05-04T11:26:32.451Z,101175.06
2023-05-04T11:28:58.881Z,101169.44
2023-05-04T11:31:25.739Z,101160.41
2023-05-04T11:33:52.413Z,101151.97
2023-05-04T11:36:18.970Z,101154.13
2023-05-04T11:38:45.403Z,101147.75
2023-05-04T11:41:12.557Z,101145.19
2023-05-04T11:43:38.994Z,101142.28
2023-05-04T11:46:05.445Z,101140.34
2023-05-04T11:48:34.755Z,101137.97
2023-05-04T11:51:01.242Z,101127.09
2023-05-04T11:53:29.066Z,101119.81
2023-05-04T11:55:56.434Z,101125.16
2023-05-04T11:58:22.839Z,101120.94
2023-05-04T12:00:49.758Z,101121.09
2023-05-04T12:03:16.431Z,101115.38
2023-05-04T12:05:43.048Z,101102.28
2023-05-04T12:08:12.468Z,101107.31
2023-05-04T12:10:38.898Z,101097.81
2023-05-04T12:13:05.531Z,101110.22
2023-05-04T12:15:32.059Z,101103.72
2023-05-04T12:17:59.634Z,101099.38
2023-05-04T12:20:28.330Z,101092.06
2023-05-04T12:22:55.408Z,101091.94
2023-05-04T12:25:21.730Z,101091.16
2023-05-04T12:27:48.147Z,101091.72
2023-05-04T12:30:14.617Z,101087.94
2023-05-04T12:32:41.086Z,101099.97
2023-05-04T12:35:08.442Z,101074.19
2023-05-04T12:37:35.140Z,101074.28
2023-05-04T12:40:02.233Z,101073.34
2023-05-04T12:42:28.732Z,101069.66
2023-05-04T12:44:55.110Z,101061.22
2023-05-04T12:47:24.402Z,101060.97
2023-05-04T12:49:50.858Z,101058.28
2023-05-04T12:52:17.278Z,101059.44
2023-05-04T12:54:43.661Z,101054.81
2023-05-04T12:57:10.650Z,101054.78
2023-05-04T12:59:37.022Z,101053.91
2023-05-04T13:02:03.443Z,101044.50
2023-05-04T13:04:29.851Z,101036.25
2023-05-04T13:06:56.439Z,101035.75
2023-05-04T13:09:22.869Z,101037.69
2023-05-04T13:11:49.771Z,101031.19
2023-05-04T13:14:16.479Z,101022.78
2023-05-04T13:16:43.479Z,101015.09
2023-05-04T13:19:09.909Z,101011.22
2023-05-04T13:21:36.555Z,101013.13
2023-05-04T13:24:02.917Z,100991.22
2023-05-04T13:26:29.326Z,100995.97
2023-05-04T13:28:55.777Z,101000.56
2023-05-04T13:31:22.231Z,100985.47
2023-05-04T13:33:50.390Z,100986.06
2023-05-04T13:36:17.126Z,100991.47
2023-05-04T13:38:43.684Z,100984.00
2023-05-04T13:41:10.196Z,100981.41
2023-05-04T13:43:36.744Z,100988.19
2023-05-04T13:46:03.209Z,100983.44
2023-05-04T13:48:30.808Z,100967.38
2023-05-04T13:51:05.604Z,100965.53
2023-05-04T13:53:48.019Z,100963.19
2023-05-04T13:56:17.672Z,100962.31
2023-05-04T13:58:45.992Z,100955.06
2023-05-04T14:01:15.795Z,100952.91
2023-05-04T14:03:44.566Z,100956.00
2023-05-04T14:08:59.004Z,100956.91
2023-05-04T14:11:27.143Z,100957.75
2023-05-04T14:14:02.598Z,100948.06
2023-05-04T14:16:34.078Z,100935.03
2023-05-04T14:19:11.070Z,100932.47
2023-05-04T14:21:42.725Z,100927.00
2023-05-04T14:26:48.773Z,100920.84
2023-05-04T14:29:18.276Z,100912.44
2023-05-04T14:31:45.767Z,100902.78
2023-05-04T14:34:29.282Z,100894.31
2023-05-04T14:36:57.424Z,100881.38
2023-05-04T14:39:35.038Z,100884.09
2023-05-04T14:42:12.468Z,100877.97
2023-05-04T14:44:49.215Z,100875.16
2023-05-04T14:47:19.058Z,100868.19
2023-05-04T14:49:47.080Z,100875.44
2023-05-04T14:52:17.357Z,100873.44
2023-05-04T14:54:51.122Z,100878.06
2023-05-04T14:57:20.808Z,100871.63
2023-05-04T14:59:48.298Z,100867.22
2023-05-04T15:02:21.191Z,100867.72
2023-05-04T15:04:55.979Z,100856.53
2023-05-04T15:07:33.398Z,100859.16
2023-05-04T15:10:14.371Z,100866.53
2023-05-04T15:12:43.562Z,100865.97
2023-05-04T15:15:13.579Z,100858.66
2023-05-04T15:17:49.265Z,100858.84
2023-05-04T15:20:32.652Z,100860.28
2023-05-04T15:23:04.310Z,100844.19
2023-05-04T15:25:36.557Z,100846.56
2023-05-04T15:28:21.164Z,100842.88
2023-05-04T15:31:00.628Z,100850.25
2023-05-04T15:33:35.803Z,100850.94
2023-05-04T15:36:14.193Z,100850.03
2023-05-04T15:38:46.356Z,100833.88
2023-05-04T15:41:19.793Z,100838.69
2023-05-04T15:43:59.979Z,100834.13
2023-05-04T15:46:27.944Z,100842.19
2023-05-04T15:49:00.101Z,100841.63
2023-05-04T15:51:35.495Z,100836.34
2023-05-04T15:54:11.878Z,100844.28
2023-05-04T15:56:52.258Z,100833.53
2023-05-04T15:59:21.601Z,100837.72
2023-05-04T16:02:09.606Z,100829.69
2023-05-04T16:07:32.225Z,100836.84
2023-05-04T16:10:02.569Z,100834.72
2023-05-04T16:12:40.229Z,100826.47
2023-05-04T16:15:20.281Z,100840.13
2023-05-04T16:17:54.560Z,100843.84
2023-05-04T16:20:35.098Z,100840.47
2023-05-04T16:23:12.307Z,100841.47
2023-05-04T16:25:49.624Z,100830.84
2023-05-04T16:28:35.260Z,100821.50
2023-05-04T16:31:12.083Z,100826.84
2023-05-04T16:33:47.819Z,100815.63
2023-05-04T16:36:19.960Z,100822.94
2023-05-04T16:38:54.703Z,100814.13
2023-05-04T16:41:26.114Z,100811.97
2023-05-04T16:44:02.536Z,100807.03
2023-05-04T16:46:39.078Z,100806.06
2023-05-04T16:49:10.913Z,100808.38
2023-05-04T16:51:45.287Z,100803.97
2023-05-04T16:54:27.712Z,100806.41
2023-05-04T16:56:57.121Z,100811.22
2023-05-04T16:59:31.721Z,100804.97
2023-05-04T17:02:06.546Z,100804.91
2023-05-04T17:04:47.055Z,100806.69
2023-05-04T17:07:24.739Z,100805.34
2023-05-04T17:10:18.307Z,100803.59
2023-05-04T17:12:52.510Z,100799.28
2023-05-04T17:15:32.275Z,100806.09
2023-05-04T17:18:08.558Z,100811.31
2023-05-04T17:20:38.522Z,100806.38
2023-05-04T17:23:07.274Z,100809.50
2023-05-04T17:25:37.984Z,100808.88
2023-05-04T17:28:08.441Z,100804.34
2023-05-04T17:30:42.015Z,100815.78
2023-05-04T17:33:15.266Z,100804.59
2023-05-04T17:35:49.083Z,100799.19
2023-05-04T17:38:20.942Z,100799.81
2023-05-04T17:40:50.732Z,100802.44
2023-05-04T17:43:18.133Z,100801.44
2023-05-04T17:45:48.737Z,100801.44
2023-05-04T17:48:41.392Z,100799.34
2023-05-04T17:51:15.189Z,100799.72
2023-05-04T17:53:45.457Z,100802.50
2023-05-04T17:56:16.561Z,100800.25
2023-05-04T17:58:47.488Z,100807.28
2023-05-04T18:01:17.027Z,100805.66
2023-05-04T18:03:49.351Z,100808.72
2023-05-04T18:06:18.272Z,100800.53
2023-05-04T18:08:44.713Z,100800.78
2023-05-04T18:11:11.366Z,100800.25
2023-05-04T18:13:37.781Z,100797.75
2023-05-04T18:16:04.154Z,100805.13
2023-05-04T18:18:31.108Z,100791.13
2023-05-04T18:20:57.583Z,100795.78
2023-05-04T18:23:23.937Z,100795.78
2023-05-04T18:25:50.787Z,100801.31
2023-05-04T18:28:17.453Z,100796.41
2023-05-04T18:30:43.826Z,100803.28
2023-05-04T18:33:10.281Z,100800.13
2023-05-04T18:35:36.845Z,100812.50
2023-05-04T18:38:03.379Z,100806.53
2023-05-04T18:40:31.604Z,100807.69
2023-05-04T18:42:58.008Z,100813.50
2023-05-04T18:45:24.660Z,100815.13
2023-05-04T18:47:51.597Z,100806.63
2023-05-04T18:50:18.108Z,100808.94
2023-05-04T18:52:44.444Z,100809.94
2023-05-04T18:55:10.962Z,100811.50
2023-05-04T18:57:37.339Z,100810.66
2023-05-04T19:00:06.617Z,100815.22
2023-05-04T19:02:33.661Z,100820.63
2023-05-04T19:05:00.130Z,100820.59
2023-05-04T19:07:26.770Z,100825.44
2023-05-04T19:09:53.298Z,100818.84
2023-05-04T19:12:20.127Z,100827.06
2023-05-04T19:14:47.134Z,100833.88
2023-05-04T19:17:14.766Z,100825.66
2023-05-04T19:19:41.465Z,100824.34
2023-05-04T19:22:08.585Z,100828.81
2023-05-04T19:24:36.277Z,100826.44
2023-05-04T19:27:02.654Z,100823.44
2023-05-04T19:29:29.070Z,100826.16
2023-05-04T19:31:55.583Z,100829.97
2023-05-04T19:34:22.031Z,100828.44
2023-05-04T19:36:48.446Z,100828.28
2023-05-04T19:39:16.700Z,100835.03
2023-05-04T19:41:43.366Z,100831.50
2023-05-04T19:44:10.325Z,100837.81
2023-05-04T19:46:36.920Z,100836.72
2023-05-04T19:49:03.594Z,100835.38
2023-05-04T19:51:30.000Z,100835.13
2023-05-04T19:53:56.879Z,100832.47
2023-05-04T19:56:23.522Z,100835.28
2023-05-04T19:58:51.263Z,100832.56
2023-05-04T20:01:18.765Z,100835.41
2023-05-04T20:03:48.331Z,100831.47
2023-05-04T20:06:15.028Z,100834.28
2023-05-04T20:08:41.742Z,100831.00
2023-05-04T20:11:08.699Z,100833.34
2023-05-04T20:13:38.583Z,100843.44
2023-05-04T20:16:05.392Z,100837.03
2023-05-04T20:18:31.856Z,100831.47
2023-05-04T20:20:58.482Z,100831.94
2023-05-04T20:23:25.124Z,100829.97
2023-05-04T20:25:52.066Z,100822.75
2023-05-04T20:28:18.403Z,100820.00
2023-05-04T20:30:46.164Z,100827.19
2023-05-04T20:33:12.664Z,100819.06
2023-05-04T20:35:39.485Z,100829.94
2023-05-04T20:38:06.118Z,100824.16
2023-05-04T20:40:33.252Z,100824.19
2023-05-04T20:42:59.609Z,100814.41
2023-05-04T20:45:26.273Z,100818.63
2023-05-04T20:47:52.874Z,100820.06
2023-05-04T20:50:20.824Z,100808.53
2023-05-04T20:52:47.254Z,100806.91
2023-05-04T20:55:13.949Z,100809.03
2023-05-04T20:57:40.393Z,100801.88
2023-05-04T21:00:07.003Z,100798.25
2023-05-04T21:02:33.930Z,100803.38
2023-05-04T21:05:00.381Z,100797.66
2023-05-04T21:07:30.482Z,100794.13
2023-05-04T21:09:57.883Z,100794.06
2023-05-04T21:12:24.280Z,100784.44
2023-05-04T21:14:50.801Z,100776.44
2023-05-04T21:17:17.126Z,100784.25
2023-05-04T21:19:43.798Z,100779.31
2023-05-04T21:22:12.084Z,100774.16
2023-05-04T21:24:38.584Z,100777.28
2023-05-04T21:27:05.153Z,100780.75
2023-05-04T21:29:31.521Z,100783.56
2023-05-04T21:31:58.312Z,100774.97
2023-05-04T21:34:24.918Z,100773.34
2023-05-04T21:36:51.279Z,100778.81
2023-05-04T21:39:17.833Z,100777.31
2023-05-04T21:41:44.688Z,100773.16
2023-05-04T21:44:11.345Z,100776.31
2023-05-04T21:46:37.846Z,100773.75
2023-05-04T21:49:05.606Z,100775.13
2023-05-04T21:51:32.202Z,100772.91
2023-05-04T21:54:02.109Z,100777.88
2023-05-04T21:56:28.817Z,100773.06
2023-05-04T21:58:55.500Z,100761.69
2023-05-04T22:01:22.097Z,100766.28
2023-05-04T22:03:48.618Z,100766.00
2023-05-04T22:06:15.456Z,100765.03
2023-05-04T22:08:41.787Z,100767.25
2023-05-04T22:11:11.562Z,100765.69
2023-05-04T22:13:37.956Z,100765.41
2023-05-04T22:16:04.344Z,100770.09
2023-05-04T22:18:30.936Z,100766.59
2023-05-04T22:20:59.124Z,100774.66
2023-05-04T22:23:25.607Z,100771.25
2023-05-04T22:25:52.026Z,100773.94
2023-05-04T22:28:18.443Z,100774.66
2023-05-04T22:30:45.205Z,100769.88
2023-05-04T22:33:11.618Z,100766.56
2023-05-04T22:35:38.044Z,100767.28
2023-05-04T22:38:05.033Z,100773.34
2023-05-04T22:40:31.415Z,100766.94
2023-05-04T22:42:57.942Z,100768.94
2023-05-04T22:45:24.295Z,100771.38
2023-05-04T22:47:53.147Z,100774.19
2023-05-04T22:50:19.692Z,100768.78
2023-05-04T22:52:46.277Z,100773.38
2023-05-04T22:55:12.771Z,100781.81
2023-05-04T22:57:41.098Z,100775.31
2023-05-04T23:00:08.305Z,100770.91
2023-05-04T23:02:35.011Z,100784.03
2023-05-04T23:05:01.625Z,100784.72
2023-05-04T23:07:28.053Z,100784.94
2023-05-04T23:09:54.403Z,100774.53
2023-05-04T23:12:20.858Z,100777.13
2023-05-04T23:14:47.202Z,100774.28
2023-05-04T23:17:13.559Z,100776.44
2023-05-04T23:19:39.966Z,100772.56
2023-05-04T23:22:06.491Z,100778.41
2023-05-04T23:24:33.010Z,100765.19
2023-05-04T23:26:59.596Z,100767.56
2023-05-04T23:29:26.040Z,100775.56
2023-05-04T23:31:53.585Z,100780.09
2023-05-04T23:34:19.984Z,100779.19
2023-05-04T23:36:46.331Z,100775.03
2023-05-04T23:39:12.674Z,100773.44
2023-05-04T23:41:39.318Z,100773.53
2023-05-04T23:44:06.049Z,100789.00
2023-05-04T23:46:32.679Z,100786.81
2023-05-04T23:48:59.105Z,100779.75
2023-05-04T23:51:25.515Z,100774.84
2023-05-04T23:53:52.009Z,100784.63
2023-05-04T23:56:18.416Z,100775.81
2023-05-04T23:58:44.983Z,100774.00
